createdAt,value
2023-04-15T00:02:18.246Z,82.13
2023-04-15T00:06:22.746Z,82.08
2023-04-15T00:10:25.354Z,81.52
2023-04-15T00:14:28.145Z,80.93
2023-04-15T00:18:31.668Z,80.90
2023-04-15T00:22:36.196Z,80.31
2023-04-15T00:26:38.909Z,80.37
2023-04-15T00:30:41.676Z,80.42
2023-04-15T00:34:44.525Z,80.24
2023-04-15T00:38:48.557Z,80.16
2023-04-15T00:42:51.751Z,79.78
2023-04-15T00:46:55.018Z,80.50
2023-04-15T00:50:57.866Z,79.46
2023-04-15T00:55:02.342Z,78.96
2023-04-15T00:59:06.267Z,79.23
2023-04-15T01:03:09.977Z,79.16
2023-04-15T01:07:12.704Z,79.27
2023-04-15T01:11:17.118Z,79.51
2023-04-15T01:15:20.439Z,79.96
2023-04-15T01:19:23.157Z,79.73
2023-04-15T01:23:26.369Z,79.55
2023-04-15T01:27:31.281Z,79.98
2023-04-15T01:31:33.996Z,79.85
2023-04-15T01:35:37.226Z,80.26
2023-04-15T01:39:40.423Z,80.01
2023-04-15T01:43:44.397Z,79.97
2023-04-15T01:47:47.049Z,80.44
2023-04-15T01:51:49.718Z,80.68
2023-04-15T01:55:53.013Z,80.61
2023-04-15T01:59:57.182Z,80.87
2023-04-15T02:03:59.868Z,81.13
2023-04-15T02:08:02.540Z,81.40
2023-04-15T02:12:05.445Z,81.47
2023-04-15T02:16:18.572Z,81.21
2023-04-15T02:20:22.440Z,80.54
2023-04-15T02:24:25.083Z,80.56
2023-04-15T02:28:27.738Z,80.50
2023-04-15T02:32:31.726Z,80.94
2023-04-15T02:36:34.786Z,80.76
2023-04-15T02:40:37.660Z,80.46
2023-04-15T02:44:40.495Z,80.29
2023-04-15T02:48:44.930Z,80.38
2023-04-15T02:52:48.191Z,80.77
2023-04-15T02:56:51.204Z,80.37
2023-04-15T03:00:54.305Z,81.20
2023-04-15T03:04:58.264Z,81.13
2023-04-15T03:09:03.246Z,81.34
2023-04-15T03:13:05.942Z,82.26
2023-04-15T03:17:08.547Z,83.03
2023-04-15T03:21:12.496Z,83.48
2023-04-15T03:25:15.281Z,83.87
2023-04-15T03:29:17.849Z,84.97
2023-04-15T03:33:20.455Z,85.35
2023-04-15T03:37:24.468Z,86.40
2023-04-15T03:41:27.042Z,86.69
2023-04-15T03:45:29.726Z,87.19
2023-04-15T03:49:32.521Z,87.81
2023-04-15T03:53:36.719Z,88.23
2023-04-15T03:57:39.746Z,88.65
2023-04-15T04:01:42.442Z,88.93
2023-04-15T04:05:45.185Z,89.61
2023-04-15T04:09:49.148Z,90.13
2023-04-15T04:13:51.958Z,89.69
2023-04-15T04:17:54.632Z,89.73
2023-04-15T04:21:57.263Z,89.76
2023-04-15T04:26:01.247Z,90.35
2023-04-15T04:30:04.193Z,90.33
2023-04-15T04:34:06.780Z,90.23
2023-04-15T04:38:09.394Z,90.38
2023-04-15T04:42:13.343Z,90.33
2023-04-15T04:46:16.236Z,90.51
2023-04-15T04:50:18.916Z,90.81
2023-04-15T04:54:21.523Z,91.07
2023-04-15T04:58:25.844Z,90.99
2023-04-15T05:02:29.267Z,90.49
2023-04-15T05:06:32.675Z,90.64
2023-04-15T05:10:35.356Z,90.58
2023-04-15T05:14:39.855Z,90.54
2023-04-15T05:18:42.552Z,90.26
2023-04-15T05:22:45.211Z,90.40
2023-04-15T05:26:48.071Z,89.42
2023-04-15T05:30:52.183Z,90.14
2023-04-15T05:34:54.867Z,90.06
2023-04-15T05:38:57.472Z,89.08
2023-04-15T05:43:00.072Z,89.49
2023-04-15T05:47:05.146Z,88.21
2023-04-15T05:51:07.798Z,89.03
2023-04-15T05:55:11.115Z,88.43
2023-04-15T05:59:13.834Z,87.80
2023-04-15T06:03:18.788Z,88.54
2023-04-15T06:07:21.539Z,88.72
2023-04-15T06:11:24.251Z,88.94
2023-04-15T06:15:27.225Z,88.48
2023-04-15T06:19:31.923Z,88.42
2023-04-15T06:23:36.270Z,88.12
2023-04-15T06:27:39.050Z,88.82
2023-04-15T06:31:41.790Z,88.39
2023-04-15T06:35:45.933Z,88.70
2023-04-15T06:39:48.629Z,87.65
2023-04-15T06:43:51.477Z,87.91
2023-04-15T06:47:54.215Z,88.31
2023-04-15T06:51:58.456Z,88.38
2023-04-15T06:56:01.237Z,87.92
2023-04-15T07:00:05.845Z,87.75
2023-04-15T07:04:08.627Z,87.81
2023-04-15T07:08:15.716Z,87.82
2023-04-15T07:12:18.556Z,87.97
2023-04-15T07:16:22.127Z,88.28
2023-04-15T07:20:24.810Z,88.09
2023-04-15T07:24:29.032Z,86.78
2023-04-15T07:28:31.818Z,86.25
2023-04-15T07:32:34.662Z,87.29
2023-04-15T07:36:37.464Z,87.23
2023-04-15T07:40:42.381Z,88.49
2023-04-15T07:44:45.183Z,88.49
2023-04-15T07:48:47.977Z,88.25
2023-04-15T07:52:51.570Z,88.32
2023-04-15T07:56:56.154Z,87.40
2023-04-15T08:00:58.838Z,87.56
2023-04-15T08:05:03.021Z,87.75
2023-04-15T08:09:05.756Z,88.07
2023-04-15T08:13:09.749Z,87.39
2023-04-15T08:17:12.514Z,87.45
2023-04-15T08:21:15.492Z,87.42
2023-04-15T08:25:18.186Z,86.96
2023-04-15T08:29:22.143Z,87.44
2023-04-15T08:33:24.954Z,86.77
2023-04-15T08:37:27.929Z,86.29
2023-04-15T08:41:35.791Z,87.25
2023-04-15T08:45:40.630Z,86.91
2023-04-15T08:49:44.161Z,87.65
2023-04-15T08:53:47.869Z,87.15
2023-04-15T08:57:50.687Z,85.65
2023-04-15T09:01:55.525Z,86.64
2023-04-15T09:05:58.712Z,86.81
2023-04-15T09:10:01.652Z,86.92
2023-04-15T09:14:04.466Z,87.26
2023-04-15T09:18:08.557Z,87.62
2023-04-15T09:22:12.024Z,86.58
2023-04-15T09:26:17.566Z,85.76
2023-04-15T09:30:20.246Z,85.22
2023-04-15T09:34:36.854Z,85.72
2023-04-15T09:38:56.257Z,84.97
2023-04-15T09:42:59.099Z,84.48
2023-04-15T09:47:01.835Z,85.60
2023-04-15T09:51:07.164Z,85.53
2023-04-15T09:55:10.089Z,84.92
2023-04-15T09:59:12.859Z,85.35
2023-04-15T10:03:19.141Z,84.55
2023-04-15T10:07:24.443Z,85.02
2023-04-15T10:11:31.572Z,84.56
2023-04-15T10:15:35.420Z,84.45
2023-04-15T10:19:39.132Z,84.84
2023-04-15T10:23:43.986Z,85.14
2023-04-15T10:27:48.603Z,84.29
2023-04-15T10:31:51.793Z,83.71
2023-04-15T10:35:56.752Z,84.27
2023-04-15T10:40:00.746Z,82.70
2023-04-15T10:44:05.367Z,82.62
2023-04-15T10:48:09.175Z,80.05
2023-04-15T10:52:12.496Z,81.14
2023-04-15T10:56:18.374Z,81.29
2023-04-15T11:00:25.470Z,77.40
2023-04-15T11:04:53.174Z,78.63
2023-04-15T11:08:59.442Z,79.19
2023-04-15T11:13:05.532Z,79.44
2023-04-15T11:17:08.621Z,77.41
2023-04-15T11:21:11.880Z,76.79
2023-04-15T11:25:23.795Z,76.78
2023-04-15T11:29:32.334Z,74.72
2023-04-15T11:33:35.340Z,73.80
2023-04-15T11:37:38.001Z,74.34
2023-04-15T11:41:44.063Z,74.48
2023-04-15T11:45:53.290Z,76.11
2023-04-15T11:49:56.046Z,74.59
2023-04-15T11:53:58.787Z,75.63
2023-04-15T11:58:09.804Z,73.91
2023-04-15T12:02:14.568Z,73.29
2023-04-15T12:06:19.676Z,74.74
2023-04-15T12:10:25.752Z,76.06
2023-04-15T12:14:29.843Z,75.96
2023-04-15T12:18:33.880Z,75.26
2023-04-15T12:22:39.172Z,76.29
2023-04-15T12:26:47.030Z,76.52
2023-04-15T12:30:51.562Z,77.79
2023-04-15T12:34:55.711Z,76.88
2023-04-15T12:38:58.424Z,77.90
2023-04-15T12:43:01.120Z,77.76
2023-04-15T12:47:04.377Z,77.07
2023-04-15T12:51:08.482Z,76.83
2023-04-15T12:55:11.162Z,78.40
2023-04-15T12:59:14.012Z,76.90
2023-04-15T13:03:17.136Z,79.43
2023-04-15T13:07:21.355Z,77.95
2023-04-15T13:11:24.312Z,77.44
2023-04-15T13:15:26.931Z,77.83
2023-04-15T13:19:29.888Z,78.53
2023-04-15T13:23:33.946Z,78.88
2023-04-15T13:27:36.873Z,78.36
2023-04-15T13:31:39.523Z,78.93
2023-04-15T13:35:42.319Z,79.59
2023-04-15T13:39:46.792Z,79.19
2023-04-15T13:43:49.423Z,78.70
2023-04-15T13:47:52.136Z,78.83
2023-04-15T13:51:54.823Z,79.09
2023-04-15T13:55:58.781Z,78.85
2023-04-15T14:00:01.475Z,78.98
2023-04-15T14:04:04.633Z,78.66
2023-04-15T14:08:07.478Z,79.00
2023-04-15T14:12:11.581Z,78.79
2023-04-15T14:16:14.240Z,78.35
2023-04-15T14:20:17.351Z,79.43
2023-04-15T14:24:20.853Z,80.12
2023-04-15T14:28:25.523Z,81.58
2023-04-15T14:32:28.433Z,81.77
2023-04-15T14:36:31.965Z,82.51
2023-04-15T14:40:34.806Z,82.56
2023-04-15T14:44:38.833Z,82.99
2023-04-15T14:48:41.598Z,83.04
2023-04-15T14:52:44.241Z,82.75
2023-04-15T14:56:46.836Z,83.32
2023-04-15T15:00:50.856Z,83.49
2023-04-15T15:04:53.764Z,82.53
2023-04-15T15:08:56.862Z,82.84
2023-04-15T15:12:59.830Z,82.35
2023-04-15T15:17:04.835Z,81.91
2023-04-15T15:21:07.480Z,82.71
2023-04-15T15:25:10.284Z,82.63
2023-04-15T15:29:12.923Z,82.22
2023-04-15T15:33:16.950Z,82.48
2023-04-15T15:37:19.655Z,82.16
2023-04-15T15:41:22.457Z,82.69
2023-04-15T15:45:25.135Z,82.05
2023-04-15T15:49:29.242Z,82.84
2023-04-15T15:53:32.824Z,82.00
2023-04-15T15:57:35.532Z,82.68
2023-04-15T16:01:38.820Z,82.42
2023-04-15T16:05:42.818Z,82.59
2023-04-15T16:09:45.795Z,82.43
2023-04-15T16:13:48.432Z,82.65
2023-04-15T16:17:51.551Z,81.63
2023-04-15T16:21:55.681Z,82.53
2023-04-15T16:25:58.510Z,82.72
2023-04-15T16:30:01.328Z,82.90
2023-04-15T16:34:03.952Z,83.39
2023-04-15T16:38:08.229Z,82.90
2023-04-15T16:42:11.172Z,83.31
2023-04-15T16:46:14.058Z,82.70
2023-04-15T16:50:16.697Z,83.07
2023-04-15T16:54:20.688Z,83.53
2023-04-15T16:58:23.294Z,82.62
2023-04-15T17:02:26.420Z,82.54
2023-04-15T17:06:29.421Z,83.05
2023-04-15T17:10:33.521Z,82.51
2023-04-15T17:14:36.139Z,82.71
2023-04-15T17:18:39.296Z,82.96
2023-04-15T17:22:41.960Z,82.88
2023-04-15T17:26:46.941Z,82.77
2023-04-15T17:30:49.638Z,82.64
2023-04-15T17:34:52.339Z,83.27
2023-04-15T17:38:56.494Z,83.47
2023-04-15T17:43:00.545Z,83.04
2023-04-15T17:47:03.465Z,83.69
2023-04-15T17:51:06.166Z,83.28
2023-04-15T17:55:09.633Z,83.25
2023-04-15T17:59:13.702Z,83.67
2023-04-15T18:03:16.437Z,83.81
2023-04-15T18:07:19.330Z,83.89
2023-04-15T18:11:22.161Z,84.14
2023-04-15T18:15:26.398Z,83.98
2023-04-15T18:19:29.093Z,84.30
2023-04-15T18:23:31.786Z,84.39
2023-04-15T18:27:35.563Z,84.40
2023-04-15T18:31:39.622Z,84.57
2023-04-15T18:35:42.988Z,84.40
2023-04-15T18:39:45.681Z,84.73
2023-04-15T18:43:48.338Z,84.85
2023-04-15T18:47:52.502Z,85.26
2023-04-15T18:51:55.572Z,84.99
2023-04-15T18:56:00.791Z,85.48
2023-04-15T19:00:03.646Z,85.67
2023-04-15T19:04:07.894Z,85.70
2023-04-15T19:08:11.709Z,86.12
2023-04-15T19:12:14.373Z,86.32
2023-04-15T19:16:17.144Z,85.98
2023-04-15T19:20:21.229Z,86.13
2023-04-15T19:24:23.951Z,86.47
2023-04-15T19:28:28.265Z,87.15
2023-04-15T19:32:30.955Z,87.29
2023-04-15T19:36:35.096Z,87.39
2023-04-15T19:40:37.980Z,87.11
2023-04-15T19:44:42.778Z,87.56
2023-04-15T19:48:45.485Z,87.80
2023-04-15T19:52:49.801Z,88.19
2023-04-15T19:56:52.619Z,87.98
2023-04-15T20:00:55.456Z,88.00
2023-04-15T20:04:58.112Z,88.21
2023-04-15T20:09:02.234Z,88.38
2023-04-15T20:13:04.955Z,88.15
2023-04-15T20:17:07.619Z,88.11
2023-04-15T20:21:10.259Z,88.65
2023-04-15T20:25:14.461Z,88.81
2023-04-15T20:29:17.183Z,88.60
2023-04-15T20:33:19.801Z,88.53
2023-04-15T20:37:22.583Z,88.27
2023-04-15T20:41:26.683Z,88.64
2023-04-15T20:45:30.510Z,88.10
2023-04-15T20:49:35.548Z,88.34
2023-04-15T20:53:38.413Z,88.33
2023-04-15T20:57:42.433Z,88.34
2023-04-15T21:01:46.066Z,88.25
2023-04-15T21:05:49.378Z,88.34
2023-04-15T21:09:52.026Z,88.85
2023-04-15T21:13:56.005Z,88.93
2023-04-15T21:17:59.033Z,88.60
2023-04-15T21:22:01.709Z,88.67
2023-04-15T21:26:04.586Z,88.88
2023-04-15T21:30:09.808Z,88.90
2023-04-15T21:34:12.559Z,89.37
2023-04-15T21:38:15.306Z,89.16
2023-04-15T21:42:17.978Z,89.36
2023-04-15T21:46:25.301Z,88.96
2023-04-15T21:50:29.878Z,89.39
2023-04-15T21:54:33.640Z,89.40
2023-04-15T21:58:36.270Z,89.13
2023-04-15T22:02:40.370Z,89.91
2023-04-15T22:06:43.069Z,90.55
2023-04-15T22:10:45.748Z,90.38
2023-04-15T22:14:48.374Z,90.78
2023-04-15T22:18:52.407Z,91.23
2023-04-15T22:22:55.014Z,90.94
2023-04-15T22:26:59.011Z,90.91
2023-04-15T22:31:02.476Z,90.94
2023-04-15T22:35:07.317Z,90.60
2023-04-15T22:39:09.998Z,91.32
2023-04-15T22:43:12.635Z,91.04
2023-04-15T22:47:15.366Z,91.19
2023-04-15T22:51:23.918Z,91.52
2023-04-15T22:55:26.549Z,91.68
2023-04-15T22:59:29.205Z,91.84
2023-04-15T23:03:32.149Z,92.09
2023-04-15T23:07:44.201Z,91.95
2023-04-15T23:11:48.028Z,92.59
2023-04-15T23:15:50.684Z,92.91
2023-04-15T23:19:53.312Z,92.85
2023-04-15T23:23:57.283Z,93.45
2023-04-15T23:27:59.893Z,93.75
2023-04-15T23:32:02.898Z,93.62
2023-04-15T23:36:06.371Z,93.51
2023-04-15T23:40:11.889Z,93.99
2023-04-15T23:44:14.504Z,94.04
2023-04-15T23:48:17.113Z,94.28
2023-04-15T23:52:19.746Z,94.22
2023-04-15T23:56:23.698Z,93.95
